sensor_id;sensor_type;location;lat;lon;timestamp;P1;durP1;ratioP1;P2;durP2;ratioP2
2610;SDS011;5612;51.134;17.058;2022-07-29T00:01:41;6.50;;;3.50;;
2610;SDS011;5612;51.134;17.058;2022-07-29T00:04:11;3.90;;;3.40;;
2610;SDS011;5612;51.134;17.058;2022-07-29T00:06:40;3.43;;;2.80;;
2610;SDS011;5612;51.134;17.058;2022-07-29T00:09:09;3.30;;;3.00;;
2610;SDS011;5612;51.134;17.058;2022-07-29T00:11:38;2.93;;;2.50;;
2610;SDS011;5612;51.134;17.058;2022-07-29T00:14:07;5.50;;;3.00;;
2610;SDS011;5612;51.134;17.058;2022-07-29T00:16:36;3.50;;;3.10;;
2610;SDS011;5612;51.134;17.058;2022-07-29T00:19:06;4.33;;;2.83;;
2610;SDS011;5612;51.134;17.058;2022-07-29T00:21:36;3.33;;;3.00;;
2610;SDS011;5612;51.134;17.058;2022-07-29T00:24:05;3.43;;;3.13;;
2610;SDS011;5612;51.134;17.058;2022-07-29T00:26:34;4.50;;;2.70;;
2610;SDS011;5612;51.134;17.058;2022-07-29T00:29:03;3.23;;;2.93;;
2610;SDS011;5612;51.134;17.058;2022-07-29T00:31:52;3.30;;;2.83;;
2610;SDS011;5612;51.134;17.058;2022-07-29T00:34:23;5.67;;;3.20;;
2610;SDS011;5612;51.134;17.058;2022-07-29T00:37:09;4.63;;;3.10;;
2610;SDS011;5612;51.134;17.058;2022-07-29T00:39:38;3.97;;;2.33;;
2610;SDS011;5612;51.134;17.058;2022-07-29T00:42:06;4.17;;;3.50;;
2610;SDS011;5612;51.134;17.058;2022-07-29T00:44:36;3.80;;;2.93;;
2610;SDS011;5612;51.134;17.058;2022-07-29T00:47:05;4.57;;;2.90;;
2610;SDS011;5612;51.134;17.058;2022-07-29T00:49:36;7.63;;;3.73;;
2610;SDS011;5612;51.134;17.058;2022-07-29T00:52:08;2.40;;;2.30;;
2610;SDS011;5612;51.134;17.058;2022-07-29T00:54:42;7.93;;;3.37;;
2610;SDS011;5612;51.134;17.058;2022-07-29T00:57:11;2.97;;;2.77;;
2610;SDS011;5612;51.134;17.058;2022-07-29T00:59:40;6.57;;;2.90;;
2610;SDS011;5612;51.134;17.058;2022-07-29T01:02:09;3.10;;;2.30;;
2610;SDS011;5612;51.134;17.058;2022-07-29T01:04:40;4.20;;;2.87;;
2610;SDS011;5612;51.134;17.058;2022-07-29T01:07:09;5.13;;;2.87;;
2610;SDS011;5612;51.134;17.058;2022-07-29T01:09:38;3.80;;;2.60;;
2610;SDS011;5612;51.134;17.058;2022-07-29T01:12:13;5.00;;;3.20;;
2610;SDS011;5612;51.134;17.058;2022-07-29T01:14:44;2.93;;;2.73;;
2610;SDS011;5612;51.134;17.058;2022-07-29T01:17:17;3.87;;;3.50;;
2610;SDS011;5612;51.134;17.058;2022-07-29T01:19:50;6.03;;;2.90;;
2610;SDS011;5612;51.134;17.058;2022-07-29T01:22:27;3.00;;;2.70;;
2610;SDS011;5612;51.134;17.058;2022-07-29T01:25:12;3.93;;;2.93;;
2610;SDS011;5612;51.134;17.058;2022-07-29T01:28:17;3.30;;;3.10;;
2610;SDS011;5612;51.134;17.058;2022-07-29T01:31:15;4.20;;;2.97;;
2610;SDS011;5612;51.134;17.058;2022-07-29T01:33:55;3.77;;;2.93;;
2610;SDS011;5612;51.134;17.058;2022-07-29T01:36:30;4.93;;;3.30;;
2610;SDS011;5612;51.134;17.058;2022-07-29T01:39:05;4.50;;;3.43;;
2610;SDS011;5612;51.134;17.058;2022-07-29T01:41:38;4.43;;;4.10;;
2610;SDS011;5612;51.134;17.058;2022-07-29T01:44:19;4.03;;;3.73;;
2610;SDS011;5612;51.134;17.058;2022-07-29T01:46:56;3.57;;;3.27;;
2610;SDS011;5612;51.134;17.058;2022-07-29T01:49:29;5.00;;;3.07;;
2610;SDS011;5612;51.134;17.058;2022-07-29T01:52:05;4.50;;;3.73;;
2610;SDS011;5612;51.134;17.058;2022-07-29T01:54:45;4.00;;;3.00;;
2610;SDS011;5612;51.134;17.058;2022-07-29T01:57:16;4.90;;;4.23;;
2610;SDS011;5612;51.134;17.058;2022-07-29T01:59:50;4.87;;;3.30;;
2610;SDS011;5612;51.134;17.058;2022-07-29T02:02:20;4.40;;;3.67;;
2610;SDS011;5612;51.134;17.058;2022-07-29T02:04:51;4.40;;;2.70;;
2610;SDS011;5612;51.134;17.058;2022-07-29T02:07:22;4.30;;;3.90;;
2610;SDS011;5612;51.134;17.058;2022-07-29T02:09:53;4.40;;;3.40;;
2610;SDS011;5612;51.134;17.058;2022-07-29T02:12:23;3.20;;;3.00;;
2610;SDS011;5612;51.134;17.058;2022-07-29T02:14:54;4.00;;;3.60;;
2610;SDS011;5612;51.134;17.058;2022-07-29T02:17:29;4.10;;;3.70;;
2610;SDS011;5612;51.134;17.058;2022-07-29T02:20:04;4.60;;;3.40;;
2610;SDS011;5612;51.134;17.058;2022-07-29T02:22:35;4.90;;;3.67;;
2610;SDS011;5612;51.134;17.058;2022-07-29T02:25:06;3.93;;;3.60;;
2610;SDS011;5612;51.134;17.058;2022-07-29T02:27:39;4.20;;;3.77;;
2610;SDS011;5612;51.134;17.058;2022-07-29T02:30:10;6.17;;;4.00;;
2610;SDS011;5612;51.134;17.058;2022-07-29T02:32:40;4.47;;;3.47;;
2610;SDS011;5612;51.134;17.058;2022-07-29T02:35:12;4.63;;;3.73;;
2610;SDS011;5612;51.134;17.058;2022-07-29T02:37:42;4.73;;;3.53;;
2610;SDS011;5612;51.134;17.058;2022-07-29T02:40:32;5.13;;;4.23;;
2610;SDS011;5612;51.134;17.058;2022-07-29T02:45:39;5.50;;;4.37;;
2610;SDS011;5612;51.134;17.058;2022-07-29T02:48:09;3.50;;;3.20;;
2610;SDS011;5612;51.134;17.058;2022-07-29T02:50:44;6.90;;;4.20;;
2610;SDS011;5612;51.134;17.058;2022-07-29T02:53:18;5.00;;;4.43;;
2610;SDS011;5612;51.134;17.058;2022-07-29T02:55:51;3.40;;;3.20;;
2610;SDS011;5612;51.134;17.058;2022-07-29T02:58:25;5.10;;;3.80;;
2610;SDS011;5612;51.134;17.058;2022-07-29T03:00:59;4.30;;;3.90;;
2610;SDS011;5612;51.134;17.058;2022-07-29T03:03:32;4.50;;;3.87;;
2610;SDS011;5612;51.134;17.058;2022-07-29T03:06:04;4.07;;;3.50;;
2610;SDS011;5612;51.134;17.058;2022-07-29T03:08:55;4.87;;;4.33;;
2610;SDS011;5612;51.134;17.058;2022-07-29T03:11:25;4.80;;;4.30;;
2610;SDS011;5612;51.134;17.058;2022-07-29T03:14:14;4.07;;;3.67;;
2610;SDS011;5612;51.134;17.058;2022-07-29T03:16:48;4.47;;;3.50;;
2610;SDS011;5612;51.134;17.058;2022-07-29T03:19:18;4.43;;;3.60;;
2610;SDS011;5612;51.134;17.058;2022-07-29T03:21:48;4.33;;;3.50;;
2610;SDS011;5612;51.134;17.058;2022-07-29T03:24:26;3.83;;;3.50;;
2610;SDS011;5612;51.134;17.058;2022-07-29T03:26:56;3.90;;;3.00;;
2610;SDS011;5612;51.134;17.058;2022-07-29T03:29:25;3.97;;;3.67;;
2610;SDS011;5612;51.134;17.058;2022-07-29T03:32:01;6.07;;;3.77;;
2610;SDS011;5612;51.134;17.058;2022-07-29T03:34:34;4.43;;;4.07;;
2610;SDS011;5612;51.134;17.058;2022-07-29T03:37:03;3.70;;;3.40;;
2610;SDS011;5612;51.134;17.058;2022-07-29T03:39:35;4.30;;;3.60;;
2610;SDS011;5612;51.134;17.058;2022-07-29T03:42:08;5.13;;;3.63;;
2610;SDS011;5612;51.134;17.058;2022-07-29T03:44:41;7.10;;;3.93;;
2610;SDS011;5612;51.134;17.058;2022-07-29T03:47:15;4.67;;;4.10;;
2610;SDS011;5612;51.134;17.058;2022-07-29T03:49:48;4.70;;;3.90;;
2610;SDS011;5612;51.134;17.058;2022-07-29T03:52:20;3.57;;;3.27;;
2610;SDS011;5612;51.134;17.058;2022-07-29T03:54:49;3.70;;;3.40;;
2610;SDS011;5612;51.134;17.058;2022-07-29T03:57:18;6.73;;;3.90;;
2610;SDS011;5612;51.134;17.058;2022-07-29T03:59:48;4.20;;;3.90;;
2610;SDS011;5612;51.134;17.058;2022-07-29T04:02:20;3.83;;;3.40;;
2610;SDS011;5612;51.134;17.058;2022-07-29T04:04:55;5.10;;;4.20;;
2610;SDS011;5612;51.134;17.058;2022-07-29T04:07:24;3.77;;;3.40;;
2610;SDS011;5612;51.134;17.058;2022-07-29T04:09:53;8.30;;;4.20;;
2610;SDS011;5612;51.134;17.058;2022-07-29T04:12:21;4.43;;;4.03;;
2610;SDS011;5612;51.134;17.058;2022-07-29T04:14:50;5.80;;;4.47;;
2610;SDS011;5612;51.134;17.058;2022-07-29T04:17:20;5.70;;;4.03;;
2610;SDS011;5612;51.134;17.058;2022-07-29T04:19:49;5.77;;;3.70;;
2610;SDS011;5612;51.134;17.058;2022-07-29T04:22:18;5.77;;;3.70;;
2610;SDS011;5612;51.134;17.058;2022-07-29T04:24:48;4.93;;;4.30;;
2610;SDS011;5612;51.134;17.058;2022-07-29T04:27:17;5.37;;;4.23;;
2610;SDS011;5612;51.134;17.058;2022-07-29T04:29:46;4.53;;;3.67;;
2610;SDS011;5612;51.134;17.058;2022-07-29T04:32:24;4.50;;;4.10;;
2610;SDS011;5612;51.134;17.058;2022-07-29T04:34:53;7.67;;;5.17;;
2610;SDS011;5612;51.134;17.058;2022-07-29T04:37:22;4.20;;;3.90;;
2610;SDS011;5612;51.134;17.058;2022-07-29T04:39:50;5.30;;;3.73;;
2610;SDS011;5612;51.134;17.058;2022-07-29T04:42:19;7.13;;;5.40;;
2610;SDS011;5612;51.134;17.058;2022-07-29T04:44:53;4.17;;;3.77;;
2610;SDS011;5612;51.134;17.058;2022-07-29T04:47:22;4.63;;;4.13;;
2610;SDS011;5612;51.134;17.058;2022-07-29T04:49:52;3.90;;;3.60;;
2610;SDS011;5612;51.134;17.058;2022-07-29T04:52:20;4.47;;;3.53;;
2610;SDS011;5612;51.134;17.058;2022-07-29T04:54:49;4.87;;;3.93;;
2610;SDS011;5612;51.134;17.058;2022-07-29T04:57:18;6.90;;;3.83;;
2610;SDS011;5612;51.134;17.058;2022-07-29T04:59:46;4.27;;;3.40;;
2610;SDS011;5612;51.134;17.058;2022-07-29T05:02:15;5.47;;;3.33;;
2610;SDS011;5612;51.134;17.058;2022-07-29T05:04:45;4.00;;;3.60;;
2610;SDS011;5612;51.134;17.058;2022-07-29T05:07:14;6.10;;;4.00;;
2610;SDS011;5612;51.134;17.058;2022-07-29T05:09:43;3.87;;;3.53;;
2610;SDS011;5612;51.134;17.058;2022-07-29T05:12:12;3.53;;;3.27;;
2610;SDS011;5612;51.134;17.058;2022-07-29T05:14:40;3.53;;;3.23;;
2610;SDS011;5612;51.134;17.058;2022-07-29T05:17:09;3.60;;;3.30;;
2610;SDS011;5612;51.134;17.058;2022-07-29T05:19:38;3.30;;;3.00;;
2610;SDS011;5612;51.134;17.058;2022-07-29T05:22:08;3.87;;;3.30;;
2610;SDS011;5612;51.134;17.058;2022-07-29T05:24:36;3.07;;;2.83;;
2610;SDS011;5612;51.134;17.058;2022-07-29T05:27:05;3.27;;;2.97;;
2610;SDS011;5612;51.134;17.058;2022-07-29T05:29:34;6.10;;;3.50;;
2610;SDS011;5612;51.134;17.058;2022-07-29T05:32:11;3.60;;;3.30;;
2610;SDS011;5612;51.134;17.058;2022-07-29T05:34:40;6.13;;;3.37;;
2610;SDS011;5612;51.134;17.058;2022-07-29T05:37:18;3.50;;;3.20;;
2610;SDS011;5612;51.134;17.058;2022-07-29T05:39:47;3.83;;;3.47;;
2610;SDS011;5612;51.134;17.058;2022-07-29T05:42:24;8.90;;;3.50;;
2610;SDS011;5612;51.134;17.058;2022-07-29T05:44:53;3.57;;;2.73;;
2610;SDS011;5612;51.134;17.058;2022-07-29T05:47:24;8.33;;;3.47;;
2610;SDS011;5612;51.134;17.058;2022-07-29T05:49:53;3.77;;;3.10;;
2610;SDS011;5612;51.134;17.058;2022-07-29T05:52:23;5.63;;;3.40;;
2610;SDS011;5612;51.134;17.058;2022-07-29T05:54:51;4.00;;;3.30;;
2610;SDS011;5612;51.134;17.058;2022-07-29T05:57:21;3.33;;;3.03;;
2610;SDS011;5612;51.134;17.058;2022-07-29T05:59:51;4.10;;;3.40;;
2610;SDS011;5612;51.134;17.058;2022-07-29T06:02:20;3.63;;;3.07;;
2610;SDS011;5612;51.134;17.058;2022-07-29T06:04:48;3.33;;;2.90;;
2610;SDS011;5612;51.134;17.058;2022-07-29T06:07:17;3.90;;;3.53;;
2610;SDS011;5612;51.134;17.058;2022-07-29T06:09:47;5.43;;;3.33;;
2610;SDS011;5612;51.134;17.058;2022-07-29T06:12:16;4.60;;;2.80;;
2610;SDS011;5612;51.134;17.058;2022-07-29T06:14:46;3.83;;;3.50;;
2610;SDS011;5612;51.134;17.058;2022-07-29T06:17:19;4.07;;;2.50;;
2610;SDS011;5612;51.134;17.058;2022-07-29T06:19:48;4.90;;;2.53;;
2610;SDS011;5612;51.134;17.058;2022-07-29T06:22:17;4.27;;;3.23;;
2610;SDS011;5612;51.134;17.058;2022-07-29T06:24:47;5.07;;;3.40;;
2610;SDS011;5612;51.134;17.058;2022-07-29T06:27:15;8.13;;;2.67;;
2610;SDS011;5612;51.134;17.058;2022-07-29T06:29:44;2.60;;;2.40;;
2610;SDS011;5612;51.134;17.058;2022-07-29T06:32:13;5.67;;;4.77;;
2610;SDS011;5612;51.134;17.058;2022-07-29T06:34:41;8.23;;;4.00;;
2610;SDS011;5612;51.134;17.058;2022-07-29T06:37:14;6.07;;;3.20;;
2610;SDS011;5612;51.134;17.058;2022-07-29T06:39:44;6.30;;;3.33;;
2610;SDS011;5612;51.134;17.058;2022-07-29T06:42:14;6.50;;;2.47;;
2610;SDS011;5612;51.134;17.058;2022-07-29T06:44:43;3.30;;;3.10;;
2610;SDS011;5612;51.134;17.058;2022-07-29T06:47:12;4.70;;;2.27;;
2610;SDS011;5612;51.134;17.058;2022-07-29T06:49:40;3.90;;;2.60;;
2610;SDS011;5612;51.134;17.058;2022-07-29T06:52:09;4.60;;;2.70;;
2610;SDS011;5612;51.134;17.058;2022-07-29T06:54:38;3.37;;;2.43;;
2610;SDS011;5612;51.134;17.058;2022-07-29T06:57:15;7.47;;;2.83;;
2610;SDS011;5612;51.134;17.058;2022-07-29T06:59:43;3.73;;;2.70;;
2610;SDS011;5612;51.134;17.058;2022-07-29T07:02:12;2.40;;;2.20;;
2610;SDS011;5612;51.134;17.058;2022-07-29T07:04:41;2.03;;;1.83;;
2610;SDS011;5612;51.134;17.058;2022-07-29T07:07:10;2.77;;;2.20;;
2610;SDS011;5612;51.134;17.058;2022-07-29T07:09:39;4.80;;;2.47;;
2610;SDS011;5612;51.134;17.058;2022-07-29T07:12:08;2.67;;;2.47;;
2610;SDS011;5612;51.134;17.058;2022-07-29T07:14:40;3.83;;;2.20;;
2610;SDS011;5612;51.134;17.058;2022-07-29T07:17:08;3.30;;;2.33;;
2610;SDS011;5612;51.134;17.058;2022-07-29T07:19:37;3.00;;;2.60;;
2610;SDS011;5612;51.134;17.058;2022-07-29T07:22:05;2.43;;;2.13;;
2610;SDS011;5612;51.134;17.058;2022-07-29T07:24:34;2.60;;;2.40;;
2610;SDS011;5612;51.134;17.058;2022-07-29T07:27:03;2.87;;;2.10;;
2610;SDS011;5612;51.134;17.058;2022-07-29T07:29:32;4.87;;;2.57;;
2610;SDS011;5612;51.134;17.058;2022-07-29T07:32:02;2.70;;;1.83;;
2610;SDS011;5612;51.134;17.058;2022-07-29T07:34:31;3.90;;;2.00;;
2610;SDS011;5612;51.134;17.058;2022-07-29T07:37:00;2.90;;;2.20;;
2610;SDS011;5612;51.134;17.058;2022-07-29T07:39:29;2.40;;;2.00;;
2610;SDS011;5612;51.134;17.058;2022-07-29T07:41:57;3.13;;;2.07;;
2610;SDS011;5612;51.134;17.058;2022-07-29T07:44:27;2.37;;;2.17;;
2610;SDS011;5612;51.134;17.058;2022-07-29T07:46:56;2.87;;;2.37;;
2610;SDS011;5612;51.134;17.058;2022-07-29T07:49:35;4.17;;;2.40;;
2610;SDS011;5612;51.134;17.058;2022-07-29T07:52:06;3.27;;;2.23;;
2610;SDS011;5612;51.134;17.058;2022-07-29T07:54:35;3.40;;;2.60;;
2610;SDS011;5612;51.134;17.058;2022-07-29T07:57:04;7.70;;;2.30;;
2610;SDS011;5612;51.134;17.058;2022-07-29T07:59:33;3.87;;;2.33;;
2610;SDS011;5612;51.134;17.058;2022-07-29T08:02:01;3.80;;;2.50;;
2610;SDS011;5612;51.134;17.058;2022-07-29T08:04:31;2.53;;;2.33;;
2610;SDS011;5612;51.134;17.058;2022-07-29T08:07:02;2.57;;;2.37;;
2610;SDS011;5612;51.134;17.058;2022-07-29T08:09:31;3.17;;;2.70;;
2610;SDS011;5612;51.134;17.058;2022-07-29T08:12:01;2.70;;;2.50;;
2610;SDS011;5612;51.134;17.058;2022-07-29T08:14:30;2.37;;;2.20;;
2610;SDS011;5612;51.134;17.058;2022-07-29T08:16:59;2.43;;;2.23;;
2610;SDS011;5612;51.134;17.058;2022-07-29T08:19:28;2.30;;;2.10;;
2610;SDS011;5612;51.134;17.058;2022-07-29T08:22:00;3.27;;;2.27;;
2610;SDS011;5612;51.134;17.058;2022-07-29T08:24:31;2.83;;;1.97;;
2610;SDS011;5612;51.134;17.058;2022-07-29T08:27:21;1.87;;;1.77;;
2610;SDS011;5612;51.134;17.058;2022-07-29T08:30:09;1.83;;;1.70;;
2610;SDS011;5612;51.134;17.058;2022-07-29T08:32:42;1.80;;;1.70;;
2610;SDS011;5612;51.134;17.058;2022-07-29T08:35:20;2.23;;;2.03;;
2610;SDS011;5612;51.134;17.058;2022-07-29T08:37:52;5.13;;;2.47;;
2610;SDS011;5612;51.134;17.058;2022-07-29T08:40:21;2.60;;;1.77;;
2610;SDS011;5612;51.134;17.058;2022-07-29T08:42:57;2.13;;;1.93;;
2610;SDS011;5612;51.134;17.058;2022-07-29T08:45:27;3.80;;;1.87;;
2610;SDS011;5612;51.134;17.058;2022-07-29T08:47:57;2.00;;;1.90;;
2610;SDS011;5612;51.134;17.058;2022-07-29T08:50:26;3.57;;;2.47;;
2610;SDS011;5612;51.134;17.058;2022-07-29T08:52:56;2.37;;;2.20;;
2610;SDS011;5612;51.134;17.058;2022-07-29T08:55:25;3.50;;;3.30;;
2610;SDS011;5612;51.134;17.058;2022-07-29T08:57:55;5.50;;;2.57;;
2610;SDS011;5612;51.134;17.058;2022-07-29T09:00:25;2.63;;;2.43;;
2610;SDS011;5612;51.134;17.058;2022-07-29T09:02:57;2.37;;;2.10;;
2610;SDS011;5612;51.134;17.058;2022-07-29T09:05:27;2.80;;;2.60;;
2610;SDS011;5612;51.134;17.058;2022-07-29T09:07:58;2.20;;;2.00;;
2610;SDS011;5612;51.134;17.058;2022-07-29T09:10:27;2.50;;;2.30;;
2610;SDS011;5612;51.134;17.058;2022-07-29T09:12:56;2.07;;;1.97;;
2610;SDS011;5612;51.134;17.058;2022-07-29T09:15:25;4.63;;;2.60;;
2610;SDS011;5612;51.134;17.058;2022-07-29T09:17:54;2.63;;;2.43;;
2610;SDS011;5612;51.134;17.058;2022-07-29T09:20:25;3.03;;;2.37;;
2610;SDS011;5612;51.134;17.058;2022-07-29T09:23:16;2.70;;;2.23;;
2610;SDS011;5612;51.134;17.058;2022-07-29T09:25:50;3.53;;;2.10;;
2610;SDS011;5612;51.134;17.058;2022-07-29T09:28:18;3.10;;;2.43;;
2610;SDS011;5612;51.134;17.058;2022-07-29T09:30:51;2.90;;;1.90;;
2610;SDS011;5612;51.134;17.058;2022-07-29T09:33:21;6.00;;;2.50;;
2610;SDS011;5612;51.134;17.058;2022-07-29T09:35:58;3.50;;;2.30;;
2610;SDS011;5612;51.134;17.058;2022-07-29T09:38:30;2.77;;;2.53;;
2610;SDS011;5612;51.134;17.058;2022-07-29T09:41:00;6.03;;;2.50;;
2610;SDS011;5612;51.134;17.058;2022-07-29T09:43:32;2.83;;;2.00;;
2610;SDS011;5612;51.134;17.058;2022-07-29T09:46:10;2.57;;;2.37;;
2610;SDS011;5612;51.134;17.058;2022-07-29T09:48:43;2.73;;;2.47;;
2610;SDS011;5612;51.134;17.058;2022-07-29T09:51:18;2.60;;;2.40;;
2610;SDS011;5612;51.134;17.058;2022-07-29T09:54:08;2.73;;;2.50;;
2610;SDS011;5612;51.134;17.058;2022-07-29T09:56:50;3.00;;;2.73;;
2610;SDS011;5612;51.134;17.058;2022-07-29T09:59:20;2.50;;;2.30;;
2610;SDS011;5612;51.134;17.058;2022-07-29T10:01:53;2.57;;;2.37;;
2610;SDS011;5612;51.134;17.058;2022-07-29T10:04:22;2.97;;;2.77;;
2610;SDS011;5612;51.134;17.058;2022-07-29T10:06:57;4.40;;;2.63;;
2610;SDS011;5612;51.134;17.058;2022-07-29T10:09:32;2.40;;;2.23;;
2610;SDS011;5612;51.134;17.058;2022-07-29T10:12:02;3.20;;;2.67;;
2610;SDS011;5612;51.134;17.058;2022-07-29T10:14:32;3.50;;;2.37;;
2610;SDS011;5612;51.134;17.058;2022-07-29T10:17:02;3.60;;;2.97;;
2610;SDS011;5612;51.134;17.058;2022-07-29T10:19:32;4.17;;;2.50;;
2610;SDS011;5612;51.134;17.058;2022-07-29T10:22:02;3.27;;;2.63;;
2610;SDS011;5612;51.134;17.058;2022-07-29T10:24:36;2.90;;;2.27;;
2610;SDS011;5612;51.134;17.058;2022-07-29T10:27:06;3.07;;;2.30;;
2610;SDS011;5612;51.134;17.058;2022-07-29T10:29:36;2.77;;;2.50;;
2610;SDS011;5612;51.134;17.058;2022-07-29T10:32:22;2.80;;;2.60;;
2610;SDS011;5612;51.134;17.058;2022-07-29T10:35:06;3.57;;;2.53;;
2610;SDS011;5612;51.134;17.058;2022-07-29T10:37:51;2.60;;;2.40;;
2610;SDS011;5612;51.134;17.058;2022-07-29T10:40:45;2.57;;;2.37;;
2610;SDS011;5612;51.134;17.058;2022-07-29T10:43:46;2.90;;;2.20;;
2610;SDS011;5612;51.134;17.058;2022-07-29T10:46:17;3.80;;;2.77;;
2610;SDS011;5612;51.134;17.058;2022-07-29T10:51:54;3.92;;;2.53;;
2610;SDS011;5612;51.134;17.058;2022-07-29T10:54:41;2.58;;;2.40;;
2610;SDS011;5612;51.134;17.058;2022-07-29T10:57:19;3.03;;;2.72;;
2610;SDS011;5612;51.134;17.058;2022-07-29T11:00:28;2.45;;;2.30;;
2610;SDS011;5612;51.134;17.058;2022-07-29T11:02:58;4.80;;;2.97;;
2610;SDS011;5612;51.134;17.058;2022-07-29T11:08:25;4.82;;;3.42;;
2610;SDS011;5612;51.134;17.058;2022-07-29T11:14:01;6.00;;;3.67;;
2610;SDS011;5612;51.134;17.058;2022-07-29T11:19:33;3.10;;;2.60;;
2610;SDS011;5612;51.134;17.058;2022-07-29T11:22:08;5.90;;;2.90;;
2610;SDS011;5612;51.134;17.058;2022-07-29T11:24:42;4.78;;;3.53;;
2610;SDS011;5612;51.134;17.058;2022-07-29T11:27:16;3.53;;;2.58;;
2610;SDS011;5612;51.134;17.058;2022-07-29T11:29:56;4.20;;;2.58;;
2610;SDS011;5612;51.134;17.058;2022-07-29T11:32:36;2.15;;;2.05;;
2610;SDS011;5612;51.134;17.058;2022-07-29T11:35:15;2.88;;;2.67;;
2610;SDS011;5612;51.134;17.058;2022-07-29T11:38:25;5.93;;;2.88;;
2610;SDS011;5612;51.134;17.058;2022-07-29T11:43:51;3.63;;;2.60;;
2610;SDS011;5612;51.134;17.058;2022-07-29T11:49:13;5.07;;;3.10;;
2610;SDS011;5612;51.134;17.058;2022-07-29T11:51:59;3.37;;;2.73;;
2610;SDS011;5612;51.134;17.058;2022-07-29T11:54:32;7.30;;;3.20;;
2610;SDS011;5612;51.134;17.058;2022-07-29T11:57:22;4.40;;;4.00;;
2610;SDS011;5612;51.134;17.058;2022-07-29T12:00:25;5.50;;;5.10;;
2610;SDS011;5612;51.134;17.058;2022-07-29T12:02:59;4.53;;;4.20;;
2610;SDS011;5612;51.134;17.058;2022-07-29T12:05:36;4.00;;;3.60;;
2610;SDS011;5612;51.134;17.058;2022-07-29T12:08:17;3.37;;;3.03;;
2610;SDS011;5612;51.134;17.058;2022-07-29T12:10:48;4.43;;;3.70;;
2610;SDS011;5612;51.134;17.058;2022-07-29T12:13:19;6.10;;;5.50;;
2610;SDS011;5612;51.134;17.058;2022-07-29T12:16:03;8.20;;;5.17;;
2610;SDS011;5612;51.134;17.058;2022-07-29T12:18:34;5.67;;;3.37;;
2610;SDS011;5612;51.134;17.058;2022-07-29T12:21:03;5.17;;;3.00;;
2610;SDS011;5612;51.134;17.058;2022-07-29T12:23:33;5.23;;;3.30;;
2610;SDS011;5612;51.134;17.058;2022-07-29T12:26:04;2.63;;;2.53;;
2610;SDS011;5612;51.134;17.058;2022-07-29T12:28:38;3.13;;;2.93;;
2610;SDS011;5612;51.134;17.058;2022-07-29T12:31:12;2.83;;;2.73;;
2610;SDS011;5612;51.134;17.058;2022-07-29T12:34:03;3.30;;;2.80;;
2610;SDS011;5612;51.134;17.058;2022-07-29T12:36:32;2.93;;;2.57;;
2610;SDS011;5612;51.134;17.058;2022-07-29T12:39:02;2.50;;;2.30;;
2610;SDS011;5612;51.134;17.058;2022-07-29T12:41:32;3.57;;;3.27;;
2610;SDS011;5612;51.134;17.058;2022-07-29T12:44:01;2.83;;;2.55;;
2610;SDS011;5612;51.134;17.058;2022-07-29T12:46:30;3.13;;;2.83;;
2610;SDS011;5612;51.134;17.058;2022-07-29T12:48:58;2.85;;;2.45;;
2610;SDS011;5612;51.134;17.058;2022-07-29T12:51:32;3.80;;;2.40;;
2610;SDS011;5612;51.134;17.058;2022-07-29T12:54:04;4.50;;;2.37;;
2610;SDS011;5612;51.134;17.058;2022-07-29T12:56:34;3.20;;;2.50;;
2610;SDS011;5612;51.134;17.058;2022-07-29T12:59:13;8.40;;;3.58;;
2610;SDS011;5612;51.134;17.058;2022-07-29T13:01:43;4.37;;;3.60;;
2610;SDS011;5612;51.134;17.058;2022-07-29T13:04:23;8.77;;;2.97;;
2610;SDS011;5612;51.134;17.058;2022-07-29T13:07:01;5.85;;;3.28;;
2610;SDS011;5612;51.134;17.058;2022-07-29T13:09:36;3.10;;;2.75;;
2610;SDS011;5612;51.134;17.058;2022-07-29T13:12:06;3.35;;;3.05;;
2610;SDS011;5612;51.134;17.058;2022-07-29T13:14:37;3.00;;;2.55;;
2610;SDS011;5612;51.134;17.058;2022-07-29T13:17:08;4.20;;;2.70;;
2610;SDS011;5612;51.134;17.058;2022-07-29T13:19:38;2.60;;;2.40;;
2610;SDS011;5612;51.134;17.058;2022-07-29T13:22:10;3.45;;;3.15;;
2610;SDS011;5612;51.134;17.058;2022-07-29T13:24:49;2.20;;;2.05;;
2610;SDS011;5612;51.134;17.058;2022-07-29T13:27:19;2.88;;;2.67;;
2610;SDS011;5612;51.134;17.058;2022-07-29T13:29:49;5.30;;;2.63;;
2610;SDS011;5612;51.134;17.058;2022-07-29T13:32:19;4.63;;;3.30;;
2610;SDS011;5612;51.134;17.058;2022-07-29T13:34:54;4.50;;;3.20;;
2610;SDS011;5612;51.134;17.058;2022-07-29T13:37:25;2.58;;;2.38;;
2610;SDS011;5612;51.134;17.058;2022-07-29T13:39:56;3.50;;;3.20;;
2610;SDS011;5612;51.134;17.058;2022-07-29T13:42:26;4.65;;;2.83;;
2610;SDS011;5612;51.134;17.058;2022-07-29T13:44:55;3.80;;;3.15;;
2610;SDS011;5612;51.134;17.058;2022-07-29T13:47:24;3.97;;;2.97;;
2610;SDS011;5612;51.134;17.058;2022-07-29T13:49:58;3.23;;;2.90;;
2610;SDS011;5612;51.134;17.058;2022-07-29T13:52:29;3.20;;;3.00;;
2610;SDS011;5612;51.134;17.058;2022-07-29T13:54:58;5.23;;;3.50;;
2610;SDS011;5612;51.134;17.058;2022-07-29T13:57:27;4.07;;;3.67;;
2610;SDS011;5612;51.134;17.058;2022-07-29T13:59:56;3.37;;;3.17;;
2610;SDS011;5612;51.134;17.058;2022-07-29T14:02:26;3.83;;;3.43;;
2610;SDS011;5612;51.134;17.058;2022-07-29T14:04:55;4.50;;;3.63;;
2610;SDS011;5612;51.134;17.058;2022-07-29T14:07:23;4.90;;;3.87;;
2610;SDS011;5612;51.134;17.058;2022-07-29T14:09:54;4.23;;;3.40;;
2610;SDS011;5612;51.134;17.058;2022-07-29T14:12:23;3.60;;;3.40;;
2610;SDS011;5612;51.134;17.058;2022-07-29T14:14:52;3.47;;;3.23;;
2610;SDS011;5612;51.134;17.058;2022-07-29T14:17:20;6.03;;;3.40;;
2610;SDS011;5612;51.134;17.058;2022-07-29T14:19:50;3.70;;;3.40;;
2610;SDS011;5612;51.134;17.058;2022-07-29T14:22:18;3.57;;;3.37;;
2610;SDS011;5612;51.134;17.058;2022-07-29T14:24:51;4.63;;;3.37;;
2610;SDS011;5612;51.134;17.058;2022-07-29T14:27:22;3.90;;;3.60;;
2610;SDS011;5612;51.134;17.058;2022-07-29T14:30:04;3.27;;;3.07;;
2610;SDS011;5612;51.134;17.058;2022-07-29T14:32:34;3.40;;;3.20;;
2610;SDS011;5612;51.134;17.058;2022-07-29T14:35:03;4.47;;;3.60;;
2610;SDS011;5612;51.134;17.058;2022-07-29T14:37:33;3.57;;;3.30;;
2610;SDS011;5612;51.134;17.058;2022-07-29T14:40:06;3.40;;;3.07;;
2610;SDS011;5612;51.134;17.058;2022-07-29T14:42:37;3.57;;;3.23;;
2610;SDS011;5612;51.134;17.058;2022-07-29T14:45:07;3.73;;;3.43;;
2610;SDS011;5612;51.134;17.058;2022-07-29T14:47:37;4.07;;;3.77;;
2610;SDS011;5612;51.134;17.058;2022-07-29T14:50:06;3.47;;;3.27;;
2610;SDS011;5612;51.134;17.058;2022-07-29T14:52:36;3.27;;;3.00;;
2610;SDS011;5612;51.134;17.058;2022-07-29T14:55:05;3.70;;;3.40;;
2610;SDS011;5612;51.134;17.058;2022-07-29T14:57:47;3.53;;;3.20;;
2610;SDS011;5612;51.134;17.058;2022-07-29T15:00:17;4.10;;;2.80;;
2610;SDS011;5612;51.134;17.058;2022-07-29T15:02:47;4.60;;;3.70;;
2610;SDS011;5612;51.134;17.058;2022-07-29T15:05:36;4.13;;;3.00;;
2610;SDS011;5612;51.134;17.058;2022-07-29T15:08:05;3.30;;;3.00;;
2610;SDS011;5612;51.134;17.058;2022-07-29T15:10:35;3.17;;;3.00;;
2610;SDS011;5612;51.134;17.058;2022-07-29T15:13:05;6.17;;;3.47;;
2610;SDS011;5612;51.134;17.058;2022-07-29T15:15:34;4.47;;;3.33;;
2610;SDS011;5612;51.134;17.058;2022-07-29T15:18:03;4.27;;;3.87;;
2610;SDS011;5612;51.134;17.058;2022-07-29T15:20:32;3.70;;;3.40;;
2610;SDS011;5612;51.134;17.058;2022-07-29T15:23:01;4.63;;;3.90;;
2610;SDS011;5612;51.134;17.058;2022-07-29T15:25:30;11.33;;;7.77;;
2610;SDS011;5612;51.134;17.058;2022-07-29T15:28:02;4.77;;;4.47;;
2610;SDS011;5612;51.134;17.058;2022-07-29T15:30:35;4.43;;;4.07;;
2610;SDS011;5612;51.134;17.058;2022-07-29T15:33:07;3.57;;;3.30;;
2610;SDS011;5612;51.134;17.058;2022-07-29T15:35:36;3.77;;;3.40;;
2610;SDS011;5612;51.134;17.058;2022-07-29T15:38:06;6.87;;;4.93;;
2610;SDS011;5612;51.134;17.058;2022-07-29T15:40:36;4.60;;;3.40;;
2610;SDS011;5612;51.134;17.058;2022-07-29T15:43:06;6.10;;;5.47;;
2610;SDS011;5612;51.134;17.058;2022-07-29T15:45:37;4.40;;;4.10;;
2610;SDS011;5612;51.134;17.058;2022-07-29T15:48:07;4.50;;;4.10;;
2610;SDS011;5612;51.134;17.058;2022-07-29T15:50:40;3.57;;;3.37;;
2610;SDS011;5612;51.134;17.058;2022-07-29T15:53:12;6.83;;;4.30;;